<?xml version="1.0" encoding="UTF-8" standalone="no" ?>
<gpx xmlns="http://www.topografix.com/GPX/1/1" xmlns:xsi="http://www.w3.org/2001/XMLSchema-instance" xsi:schemaLocation="http://www.topografix.com/GPX/1/1 http://www.topografix.com/GPX/1/1/gpx.xsd" version="1.1" creator="VisuGPX - https://www.visugpx.com">
  <metadata>
    <name>Kerné Uhel</name>
  </metadata>
  <trk>
    <name><![CDATA[TREMARGAT]]></name>
    <trkseg>
      <trkpt lat="48.34751" lon="-3.25667">
        <ele>232.78</ele>
        <time>2020-08-13T12:08:29Z</time>
      </trkpt>
      <trkpt lat="48.34751" lon="-3.25667">
        <ele>232.78</ele>
        <time>2020-08-13T12:08:30Z</time>
      </trkpt>
      <trkpt lat="48.34751" lon="-3.25667">
        <ele>230.85</ele>
        <time>2020-08-13T12:08:41Z</time>
      </trkpt>
      <trkpt lat="48.34748" lon="-3.25661">
        <ele>230.85</ele>
        <time>2020-08-13T12:08:50Z</time>
      </trkpt>
      <trkpt lat="48.34745" lon="-3.25659">
        <ele>232.78</ele>
        <time>2020-08-13T12:08:53Z</time>
      </trkpt>
      <trkpt lat="48.34739" lon="-3.25647">
        <ele>231.81</ele>
        <time>2020-08-13T12:09:09Z</time>
      </trkpt>
      <trkpt lat="48.34736" lon="-3.25645">
        <ele>232.3</ele>
        <time>2020-08-13T12:09:23Z</time>
      </trkpt>
      <trkpt lat="48.34734" lon="-3.25642">
        <ele>232.3</ele>
        <time>2020-08-13T12:09:53Z</time>
      </trkpt>
      <trkpt lat="48.34738" lon="-3.25645">
        <ele>232.3</ele>
        <time>2020-08-13T12:10:19Z</time>
      </trkpt>
      <trkpt lat="48.34737" lon="-3.25647">
        <ele>232.3</ele>
        <time>2020-08-13T12:10:53Z</time>
      </trkpt>
      <trkpt lat="48.34735" lon="-3.25646">
        <ele>232.3</ele>
        <time>2020-08-13T12:11:17Z</time>
      </trkpt>
      <trkpt lat="48.34737" lon="-3.25644">
        <ele>232.3</ele>
        <time>2020-08-13T12:11:42Z</time>
      </trkpt>
      <trkpt lat="48.34736" lon="-3.25648">
        <ele>232.3</ele>
        <time>2020-08-13T12:12:11Z</time>
      </trkpt>
      <trkpt lat="48.34736" lon="-3.25648">
        <ele>232.3</ele>
        <time>2020-08-13T12:12:32Z</time>
      </trkpt>
      <trkpt lat="48.34738" lon="-3.25645">
        <ele>232.3</ele>
        <time>2020-08-13T12:12:56Z</time>
      </trkpt>
      <trkpt lat="48.34743" lon="-3.25649">
        <ele>232.78</ele>
        <time>2020-08-13T12:13:20Z</time>
      </trkpt>
      <trkpt lat="48.3474" lon="-3.25651">
        <ele>232.78</ele>
        <time>2020-08-13T12:13:38Z</time>
      </trkpt>
      <trkpt lat="48.34737" lon="-3.25653">
        <ele>232.78</ele>
        <time>2020-08-13T12:14:04Z</time>
      </trkpt>
      <trkpt lat="48.34736" lon="-3.25649">
        <ele>232.78</ele>
        <time>2020-08-13T12:14:21Z</time>
      </trkpt>
      <trkpt lat="48.34736" lon="-3.25648">
        <ele>232.78</ele>
        <time>2020-08-13T12:14:53Z</time>
      </trkpt>
      <trkpt lat="48.34734" lon="-3.25646">
        <ele>232.78</ele>
        <time>2020-08-13T12:15:20Z</time>
      </trkpt>
      <trkpt lat="48.34724" lon="-3.25659">
        <ele>233.74</ele>
        <time>2020-08-13T12:15:35Z</time>
      </trkpt>
      <trkpt lat="48.34717" lon="-3.25663">
        <ele>234.7</ele>
        <time>2020-08-13T12:15:49Z</time>
      </trkpt>
      <trkpt lat="48.34715" lon="-3.25664">
        <ele>235.18</ele>
        <time>2020-08-13T12:15:51Z</time>
      </trkpt>
      <trkpt lat="48.34702" lon="-3.25676">
        <ele>236.14</ele>
        <time>2020-08-13T12:16:07Z</time>
      </trkpt>
      <trkpt lat="48.347" lon="-3.25677">
        <ele>235.18</ele>
        <time>2020-08-13T12:16:09Z</time>
      </trkpt>
      <trkpt lat="48.34687" lon="-3.25684">
        <ele>235.18</ele>
        <time>2020-08-13T12:16:22Z</time>
      </trkpt>
      <trkpt lat="48.34684" lon="-3.25685">
        <ele>235.18</ele>
        <time>2020-08-13T12:16:25Z</time>
      </trkpt>
      <trkpt lat="48.34682" lon="-3.25685">
        <ele>235.18</ele>
        <time>2020-08-13T12:16:27Z</time>
      </trkpt>
      <trkpt lat="48.34674" lon="-3.25689">
        <ele>236.14</ele>
        <time>2020-08-13T12:16:34Z</time>
      </trkpt>
      <trkpt lat="48.34658" lon="-3.2569">
        <ele>237.1</ele>
        <time>2020-08-13T12:16:48Z</time>
      </trkpt>
      <trkpt lat="48.34641" lon="-3.25688">
        <ele>239.51</ele>
        <time>2020-08-13T12:17:03Z</time>
      </trkpt>
      <trkpt lat="48.3464" lon="-3.25687">
        <ele>239.51</ele>
        <time>2020-08-13T12:17:04Z</time>
      </trkpt>
      <trkpt lat="48.34635" lon="-3.25669">
        <ele>240.47</ele>
        <time>2020-08-13T12:17:17Z</time>
      </trkpt>
      <trkpt lat="48.34629" lon="-3.25656">
        <ele>239.02</ele>
        <time>2020-08-13T12:17:30Z</time>
      </trkpt>
      <trkpt lat="48.34632" lon="-3.25653">
        <ele>238.54</ele>
        <time>2020-08-13T12:17:33Z</time>
      </trkpt>
      <trkpt lat="48.34634" lon="-3.25638">
        <ele>238.06</ele>
        <time>2020-08-13T12:17:41Z</time>
      </trkpt>
      <trkpt lat="48.34627" lon="-3.25611">
        <ele>235.66</ele>
        <time>2020-08-13T12:17:58Z</time>
      </trkpt>
      <trkpt lat="48.34618" lon="-3.2558">
        <ele>234.22</ele>
        <time>2020-08-13T12:18:18Z</time>
      </trkpt>
      <trkpt lat="48.34611" lon="-3.25554">
        <ele>233.26</ele>
        <time>2020-08-13T12:18:40Z</time>
      </trkpt>
      <trkpt lat="48.346" lon="-3.25528">
        <ele>230.37</ele>
        <time>2020-08-13T12:19:01Z</time>
      </trkpt>
      <trkpt lat="48.34583" lon="-3.25499">
        <ele>228.45</ele>
        <time>2020-08-13T12:19:23Z</time>
      </trkpt>
      <trkpt lat="48.34565" lon="-3.25467">
        <ele>226.53</ele>
        <time>2020-08-13T12:19:45Z</time>
      </trkpt>
      <trkpt lat="48.34549" lon="-3.2543">
        <ele>225.57</ele>
        <time>2020-08-13T12:20:10Z</time>
      </trkpt>
      <trkpt lat="48.34545" lon="-3.25399">
        <ele>225.09</ele>
        <time>2020-08-13T12:20:31Z</time>
      </trkpt>
      <trkpt lat="48.34545" lon="-3.25394">
        <ele>226.53</ele>
        <time>2020-08-13T12:20:33Z</time>
      </trkpt>
      <trkpt lat="48.3454" lon="-3.25361">
        <ele>225.57</ele>
        <time>2020-08-13T12:20:51Z</time>
      </trkpt>
      <trkpt lat="48.34531" lon="-3.2533">
        <ele>223.64</ele>
        <time>2020-08-13T12:21:12Z</time>
      </trkpt>
      <trkpt lat="48.34522" lon="-3.25292">
        <ele>221.72</ele>
        <time>2020-08-13T12:21:36Z</time>
      </trkpt>
      <trkpt lat="48.34525" lon="-3.25263">
        <ele>218.84</ele>
        <time>2020-08-13T12:21:54Z</time>
      </trkpt>
      <trkpt lat="48.34529" lon="-3.25231">
        <ele>217.88</ele>
        <time>2020-08-13T12:22:17Z</time>
      </trkpt>
      <trkpt lat="48.34547" lon="-3.25234">
        <ele>220.28</ele>
        <time>2020-08-13T12:22:37Z</time>
      </trkpt>
      <trkpt lat="48.34567" lon="-3.25237">
        <ele>219.8</ele>
        <time>2020-08-13T12:22:59Z</time>
      </trkpt>
      <trkpt lat="48.34591" lon="-3.25263">
        <ele>220.76</ele>
        <time>2020-08-13T12:23:22Z</time>
      </trkpt>
      <trkpt lat="48.34609" lon="-3.25276">
        <ele>217.4</ele>
        <time>2020-08-13T12:23:38Z</time>
      </trkpt>
      <trkpt lat="48.34622" lon="-3.25262">
        <ele>214.51</ele>
        <time>2020-08-13T12:23:56Z</time>
      </trkpt>
      <trkpt lat="48.34622" lon="-3.25239">
        <ele>212.59</ele>
        <time>2020-08-13T12:24:08Z</time>
      </trkpt>
      <trkpt lat="48.34627" lon="-3.25216">
        <ele>212.59</ele>
        <time>2020-08-13T12:24:20Z</time>
      </trkpt>
      <trkpt lat="48.34632" lon="-3.25194">
        <ele>212.59</ele>
        <time>2020-08-13T12:24:32Z</time>
      </trkpt>
      <trkpt lat="48.34627" lon="-3.25159">
        <ele>212.11</ele>
        <time>2020-08-13T12:24:52Z</time>
      </trkpt>
      <trkpt lat="48.34614" lon="-3.25141">
        <ele>212.11</ele>
        <time>2020-08-13T12:25:05Z</time>
      </trkpt>
      <trkpt lat="48.34594" lon="-3.25138">
        <ele>212.11</ele>
        <time>2020-08-13T12:25:21Z</time>
      </trkpt>
      <trkpt lat="48.34584" lon="-3.25131">
        <ele>213.55</ele>
        <time>2020-08-13T12:25:30Z</time>
      </trkpt>
      <trkpt lat="48.34566" lon="-3.25117">
        <ele>213.07</ele>
        <time>2020-08-13T12:25:47Z</time>
      </trkpt>
      <trkpt lat="48.34554" lon="-3.251">
        <ele>213.55</ele>
        <time>2020-08-13T12:26:01Z</time>
      </trkpt>
      <trkpt lat="48.34541" lon="-3.25079">
        <ele>213.55</ele>
        <time>2020-08-13T12:26:17Z</time>
      </trkpt>
      <trkpt lat="48.34537" lon="-3.25074">
        <ele>212.11</ele>
        <time>2020-08-13T12:26:21Z</time>
      </trkpt>
      <trkpt lat="48.34521" lon="-3.25064">
        <ele>212.11</ele>
        <time>2020-08-13T12:26:37Z</time>
      </trkpt>
      <trkpt lat="48.34501" lon="-3.25054">
        <ele>211.63</ele>
        <time>2020-08-13T12:26:52Z</time>
      </trkpt>
      <trkpt lat="48.34486" lon="-3.25041">
        <ele>211.15</ele>
        <time>2020-08-13T12:27:06Z</time>
      </trkpt>
      <trkpt lat="48.34484" lon="-3.25038">
        <ele>211.15</ele>
        <time>2020-08-13T12:27:09Z</time>
      </trkpt>
      <trkpt lat="48.3448" lon="-3.25037">
        <ele>211.15</ele>
        <time>2020-08-13T12:27:11Z</time>
      </trkpt>
      <trkpt lat="48.34458" lon="-3.25017">
        <ele>211.15</ele>
        <time>2020-08-13T12:27:30Z</time>
      </trkpt>
      <trkpt lat="48.34443" lon="-3.25004">
        <ele>212.59</ele>
        <time>2020-08-13T12:27:45Z</time>
      </trkpt>
      <trkpt lat="48.34442" lon="-3.25004">
        <ele>212.59</ele>
        <time>2020-08-13T12:27:46Z</time>
      </trkpt>
      <trkpt lat="48.34422" lon="-3.24986">
        <ele>213.07</ele>
        <time>2020-08-13T12:28:03Z</time>
      </trkpt>
      <trkpt lat="48.34404" lon="-3.24966">
        <ele>213.55</ele>
        <time>2020-08-13T12:28:21Z</time>
      </trkpt>
      <trkpt lat="48.34392" lon="-3.2495">
        <ele>214.03</ele>
        <time>2020-08-13T12:28:37Z</time>
      </trkpt>
      <trkpt lat="48.34372" lon="-3.2493">
        <ele>214.51</ele>
        <time>2020-08-13T12:28:54Z</time>
      </trkpt>
      <trkpt lat="48.34369" lon="-3.24926">
        <ele>214.51</ele>
        <time>2020-08-13T12:28:57Z</time>
      </trkpt>
      <trkpt lat="48.34354" lon="-3.24905">
        <ele>214.99</ele>
        <time>2020-08-13T12:29:13Z</time>
      </trkpt>
      <trkpt lat="48.34344" lon="-3.24896">
        <ele>215.47</ele>
        <time>2020-08-13T12:29:25Z</time>
      </trkpt>
      <trkpt lat="48.34329" lon="-3.24878">
        <ele>215.47</ele>
        <time>2020-08-13T12:29:42Z</time>
      </trkpt>
      <trkpt lat="48.34311" lon="-3.24854">
        <ele>215.47</ele>
        <time>2020-08-13T12:29:59Z</time>
      </trkpt>
      <trkpt lat="48.34295" lon="-3.24831">
        <ele>214.03</ele>
        <time>2020-08-13T12:30:17Z</time>
      </trkpt>
      <trkpt lat="48.34295" lon="-3.24829">
        <ele>214.03</ele>
        <time>2020-08-13T12:30:18Z</time>
      </trkpt>
      <trkpt lat="48.34294" lon="-3.24827">
        <ele>214.03</ele>
        <time>2020-08-13T12:30:20Z</time>
      </trkpt>
      <trkpt lat="48.34291" lon="-3.24819">
        <ele>213.07</ele>
        <time>2020-08-13T12:30:29Z</time>
      </trkpt>
      <trkpt lat="48.3427" lon="-3.248">
        <ele>212.11</ele>
        <time>2020-08-13T12:30:47Z</time>
      </trkpt>
      <trkpt lat="48.34258" lon="-3.24788">
        <ele>212.59</ele>
        <time>2020-08-13T12:31:01Z</time>
      </trkpt>
      <trkpt lat="48.34258" lon="-3.24777">
        <ele>210.67</ele>
        <time>2020-08-13T12:31:13Z</time>
      </trkpt>
      <trkpt lat="48.34261" lon="-3.24771">
        <ele>212.11</ele>
        <time>2020-08-13T12:31:16Z</time>
      </trkpt>
      <trkpt lat="48.3427" lon="-3.24755">
        <ele>213.55</ele>
        <time>2020-08-13T12:31:34Z</time>
      </trkpt>
      <trkpt lat="48.34284" lon="-3.24733">
        <ele>213.55</ele>
        <time>2020-08-13T12:31:53Z</time>
      </trkpt>
      <trkpt lat="48.34295" lon="-3.24731">
        <ele>215.47</ele>
        <time>2020-08-13T12:32:10Z</time>
      </trkpt>
      <trkpt lat="48.34301" lon="-3.24731">
        <ele>217.4</ele>
        <time>2020-08-13T12:32:23Z</time>
      </trkpt>
      <trkpt lat="48.34308" lon="-3.24713">
        <ele>218.36</ele>
        <time>2020-08-13T12:32:42Z</time>
      </trkpt>
      <trkpt lat="48.34315" lon="-3.24697">
        <ele>218.36</ele>
        <time>2020-08-13T12:32:51Z</time>
      </trkpt>
      <trkpt lat="48.34323" lon="-3.24668">
        <ele>218.84</ele>
        <time>2020-08-13T12:33:10Z</time>
      </trkpt>
      <trkpt lat="48.34328" lon="-3.24633">
        <ele>219.8</ele>
        <time>2020-08-13T12:33:34Z</time>
      </trkpt>
      <trkpt lat="48.34334" lon="-3.246">
        <ele>220.28</ele>
        <time>2020-08-13T12:33:56Z</time>
      </trkpt>
      <trkpt lat="48.34341" lon="-3.24567">
        <ele>222.2</ele>
        <time>2020-08-13T12:34:19Z</time>
      </trkpt>
      <trkpt lat="48.34363" lon="-3.24553">
        <ele>224.12</ele>
        <time>2020-08-13T12:34:42Z</time>
      </trkpt>
      <trkpt lat="48.3439" lon="-3.24537">
        <ele>225.57</ele>
        <time>2020-08-13T12:35:07Z</time>
      </trkpt>
      <trkpt lat="48.34406" lon="-3.24524">
        <ele>227.01</ele>
        <time>2020-08-13T12:35:29Z</time>
      </trkpt>
      <trkpt lat="48.34403" lon="-3.2451">
        <ele>225.57</ele>
        <time>2020-08-13T12:35:49Z</time>
      </trkpt>
      <trkpt lat="48.34399" lon="-3.24515">
        <ele>227.49</ele>
        <time>2020-08-13T12:36:11Z</time>
      </trkpt>
      <trkpt lat="48.34391" lon="-3.24504">
        <ele>228.93</ele>
        <time>2020-08-13T12:36:33Z</time>
      </trkpt>
      <trkpt lat="48.3439" lon="-3.24505">
        <ele>229.89</ele>
        <time>2020-08-13T12:36:52Z</time>
      </trkpt>
      <trkpt lat="48.34383" lon="-3.24506">
        <ele>228.45</ele>
        <time>2020-08-13T12:37:13Z</time>
      </trkpt>
      <trkpt lat="48.34376" lon="-3.24518">
        <ele>225.57</ele>
        <time>2020-08-13T12:37:35Z</time>
      </trkpt>
      <trkpt lat="48.34364" lon="-3.24524">
        <ele>223.64</ele>
        <time>2020-08-13T12:37:53Z</time>
      </trkpt>
      <trkpt lat="48.34342" lon="-3.24518">
        <ele>225.09</ele>
        <time>2020-08-13T12:38:16Z</time>
      </trkpt>
      <trkpt lat="48.34332" lon="-3.24494">
        <ele>226.05</ele>
        <time>2020-08-13T12:38:42Z</time>
      </trkpt>
      <trkpt lat="48.34325" lon="-3.24475">
        <ele>225.57</ele>
        <time>2020-08-13T12:38:54Z</time>
      </trkpt>
      <trkpt lat="48.34326" lon="-3.24438">
        <ele>226.05</ele>
        <time>2020-08-13T12:39:14Z</time>
      </trkpt>
      <trkpt lat="48.34324" lon="-3.24434">
        <ele>229.89</ele>
        <time>2020-08-13T12:39:34Z</time>
      </trkpt>
      <trkpt lat="48.34331" lon="-3.24415">
        <ele>228.45</ele>
        <time>2020-08-13T12:39:54Z</time>
      </trkpt>
      <trkpt lat="48.34332" lon="-3.24404">
        <ele>231.33</ele>
        <time>2020-08-13T12:40:01Z</time>
      </trkpt>
      <trkpt lat="48.34335" lon="-3.24395">
        <ele>232.3</ele>
        <time>2020-08-13T12:40:08Z</time>
      </trkpt>
      <trkpt lat="48.34345" lon="-3.24392">
        <ele>236.14</ele>
        <time>2020-08-13T12:40:22Z</time>
      </trkpt>
      <trkpt lat="48.34345" lon="-3.24391">
        <ele>236.14</ele>
        <time>2020-08-13T12:40:23Z</time>
      </trkpt>
      <trkpt lat="48.34345" lon="-3.2439">
        <ele>235.18</ele>
        <time>2020-08-13T12:40:25Z</time>
      </trkpt>
      <trkpt lat="48.34347" lon="-3.24388">
        <ele>236.14</ele>
        <time>2020-08-13T12:40:28Z</time>
      </trkpt>
      <trkpt lat="48.34359" lon="-3.24373">
        <ele>238.54</ele>
        <time>2020-08-13T12:40:40Z</time>
      </trkpt>
      <trkpt lat="48.34366" lon="-3.24362">
        <ele>240.95</ele>
        <time>2020-08-13T12:40:52Z</time>
      </trkpt>
      <trkpt lat="48.3437" lon="-3.2435">
        <ele>241.43</ele>
        <time>2020-08-13T12:41:09Z</time>
      </trkpt>
      <trkpt lat="48.34367" lon="-3.2435">
        <ele>242.39</ele>
        <time>2020-08-13T12:41:36Z</time>
      </trkpt>
      <trkpt lat="48.34369" lon="-3.24351">
        <ele>240.47</ele>
        <time>2020-08-13T12:41:43Z</time>
      </trkpt>
      <trkpt lat="48.34368" lon="-3.2435">
        <ele>241.91</ele>
        <time>2020-08-13T12:41:46Z</time>
      </trkpt>
      <trkpt lat="48.3437" lon="-3.24348">
        <ele>241.91</ele>
        <time>2020-08-13T12:42:05Z</time>
      </trkpt>
      <trkpt lat="48.34368" lon="-3.24348">
        <ele>241.91</ele>
        <time>2020-08-13T12:42:26Z</time>
      </trkpt>
      <trkpt lat="48.34366" lon="-3.2434">
        <ele>241.91</ele>
        <time>2020-08-13T12:42:56Z</time>
      </trkpt>
      <trkpt lat="48.34366" lon="-3.24338">
        <ele>241.91</ele>
        <time>2020-08-13T12:43:25Z</time>
      </trkpt>
      <trkpt lat="48.34365" lon="-3.24334">
        <ele>242.39</ele>
        <time>2020-08-13T12:43:54Z</time>
      </trkpt>
      <trkpt lat="48.34367" lon="-3.24336">
        <ele>242.39</ele>
        <time>2020-08-13T12:44:16Z</time>
      </trkpt>
      <trkpt lat="48.3437" lon="-3.24323">
        <ele>242.39</ele>
        <time>2020-08-13T12:44:31Z</time>
      </trkpt>
      <trkpt lat="48.34372" lon="-3.24317">
        <ele>242.87</ele>
        <time>2020-08-13T12:44:36Z</time>
      </trkpt>
      <trkpt lat="48.34374" lon="-3.2431">
        <ele>242.87</ele>
        <time>2020-08-13T12:44:42Z</time>
      </trkpt>
      <trkpt lat="48.34378" lon="-3.24301">
        <ele>242.87</ele>
        <time>2020-08-13T12:44:48Z</time>
      </trkpt>
      <trkpt lat="48.34382" lon="-3.24292">
        <ele>242.87</ele>
        <time>2020-08-13T12:44:55Z</time>
      </trkpt>
      <trkpt lat="48.34383" lon="-3.24286">
        <ele>243.35</ele>
        <time>2020-08-13T12:44:59Z</time>
      </trkpt>
      <trkpt lat="48.34386" lon="-3.24269">
        <ele>243.83</ele>
        <time>2020-08-13T12:45:12Z</time>
      </trkpt>
      <trkpt lat="48.34387" lon="-3.24264">
        <ele>244.79</ele>
        <time>2020-08-13T12:45:15Z</time>
      </trkpt>
      <trkpt lat="48.34388" lon="-3.24259">
        <ele>244.79</ele>
        <time>2020-08-13T12:45:19Z</time>
      </trkpt>
      <trkpt lat="48.34386" lon="-3.24235">
        <ele>246.72</ele>
        <time>2020-08-13T12:45:35Z</time>
      </trkpt>
      <trkpt lat="48.34391" lon="-3.24215">
        <ele>247.68</ele>
        <time>2020-08-13T12:45:50Z</time>
      </trkpt>
      <trkpt lat="48.34389" lon="-3.24192">
        <ele>248.16</ele>
        <time>2020-08-13T12:46:07Z</time>
      </trkpt>
      <trkpt lat="48.34388" lon="-3.24184">
        <ele>248.16</ele>
        <time>2020-08-13T12:46:11Z</time>
      </trkpt>
      <trkpt lat="48.34398" lon="-3.24163">
        <ele>249.12</ele>
        <time>2020-08-13T12:46:25Z</time>
      </trkpt>
      <trkpt lat="48.34413" lon="-3.24139">
        <ele>249.6</ele>
        <time>2020-08-13T12:46:44Z</time>
      </trkpt>
      <trkpt lat="48.34417" lon="-3.24127">
        <ele>249.6</ele>
        <time>2020-08-13T12:46:54Z</time>
      </trkpt>
      <trkpt lat="48.34416" lon="-3.24099">
        <ele>250.56</ele>
        <time>2020-08-13T12:47:11Z</time>
      </trkpt>
      <trkpt lat="48.34407" lon="-3.24087">
        <ele>250.56</ele>
        <time>2020-08-13T12:47:20Z</time>
      </trkpt>
      <trkpt lat="48.34402" lon="-3.24081">
        <ele>250.56</ele>
        <time>2020-08-13T12:47:26Z</time>
      </trkpt>
      <trkpt lat="48.34393" lon="-3.24056">
        <ele>251.04</ele>
        <time>2020-08-13T12:47:43Z</time>
      </trkpt>
      <trkpt lat="48.34393" lon="-3.24048">
        <ele>252</ele>
        <time>2020-08-13T12:47:47Z</time>
      </trkpt>
      <trkpt lat="48.34394" lon="-3.24044">
        <ele>252</ele>
        <time>2020-08-13T12:47:49Z</time>
      </trkpt>
      <trkpt lat="48.34395" lon="-3.2404">
        <ele>252</ele>
        <time>2020-08-13T12:47:51Z</time>
      </trkpt>
      <trkpt lat="48.34398" lon="-3.24025">
        <ele>252.96</ele>
        <time>2020-08-13T12:48:04Z</time>
      </trkpt>
      <trkpt lat="48.34398" lon="-3.24024">
        <ele>252.96</ele>
        <time>2020-08-13T12:48:05Z</time>
      </trkpt>
      <trkpt lat="48.34403" lon="-3.24011">
        <ele>252</ele>
        <time>2020-08-13T12:48:13Z</time>
      </trkpt>
      <trkpt lat="48.34411" lon="-3.23979">
        <ele>253.93</ele>
        <time>2020-08-13T12:48:33Z</time>
      </trkpt>
      <trkpt lat="48.34412" lon="-3.2397">
        <ele>252.96</ele>
        <time>2020-08-13T12:48:38Z</time>
      </trkpt>
      <trkpt lat="48.34415" lon="-3.23953">
        <ele>253.93</ele>
        <time>2020-08-13T12:48:47Z</time>
      </trkpt>
      <trkpt lat="48.34416" lon="-3.23917">
        <ele>254.41</ele>
        <time>2020-08-13T12:49:05Z</time>
      </trkpt>
      <trkpt lat="48.34419" lon="-3.23883">
        <ele>254.41</ele>
        <time>2020-08-13T12:49:23Z</time>
      </trkpt>
      <trkpt lat="48.34421" lon="-3.23855">
        <ele>252.96</ele>
        <time>2020-08-13T12:49:38Z</time>
      </trkpt>
      <trkpt lat="48.34426" lon="-3.23827">
        <ele>252.48</ele>
        <time>2020-08-13T12:49:55Z</time>
      </trkpt>
      <trkpt lat="48.34435" lon="-3.2382">
        <ele>251.52</ele>
        <time>2020-08-13T12:50:05Z</time>
      </trkpt>
      <trkpt lat="48.34437" lon="-3.23818">
        <ele>250.56</ele>
        <time>2020-08-13T12:50:07Z</time>
      </trkpt>
      <trkpt lat="48.34455" lon="-3.23815">
        <ele>248.16</ele>
        <time>2020-08-13T12:50:26Z</time>
      </trkpt>
      <trkpt lat="48.34481" lon="-3.2381">
        <ele>246.72</ele>
        <time>2020-08-13T12:50:48Z</time>
      </trkpt>
      <trkpt lat="48.34507" lon="-3.23796">
        <ele>245.27</ele>
        <time>2020-08-13T12:51:09Z</time>
      </trkpt>
      <trkpt lat="48.34529" lon="-3.23799">
        <ele>244.31</ele>
        <time>2020-08-13T12:51:27Z</time>
      </trkpt>
      <trkpt lat="48.34551" lon="-3.23807">
        <ele>243.35</ele>
        <time>2020-08-13T12:51:45Z</time>
      </trkpt>
      <trkpt lat="48.3458" lon="-3.23812">
        <ele>242.39</ele>
        <time>2020-08-13T12:52:08Z</time>
      </trkpt>
      <trkpt lat="48.34603" lon="-3.23818">
        <ele>241.43</ele>
        <time>2020-08-13T12:52:26Z</time>
      </trkpt>
      <trkpt lat="48.34625" lon="-3.23824">
        <ele>240.95</ele>
        <time>2020-08-13T12:52:44Z</time>
      </trkpt>
      <trkpt lat="48.34642" lon="-3.2383">
        <ele>241.43</ele>
        <time>2020-08-13T12:52:57Z</time>
      </trkpt>
      <trkpt lat="48.3465" lon="-3.23834">
        <ele>239.99</ele>
        <time>2020-08-13T12:53:03Z</time>
      </trkpt>
      <trkpt lat="48.34674" lon="-3.23859">
        <ele>239.99</ele>
        <time>2020-08-13T12:53:24Z</time>
      </trkpt>
      <trkpt lat="48.34678" lon="-3.23863">
        <ele>238.54</ele>
        <time>2020-08-13T12:53:28Z</time>
      </trkpt>
      <trkpt lat="48.34697" lon="-3.23894">
        <ele>238.06</ele>
        <time>2020-08-13T12:53:50Z</time>
      </trkpt>
      <trkpt lat="48.34711" lon="-3.23929">
        <ele>237.1</ele>
        <time>2020-08-13T12:54:12Z</time>
      </trkpt>
      <trkpt lat="48.34726" lon="-3.23958">
        <ele>236.14</ele>
        <time>2020-08-13T12:54:34Z</time>
      </trkpt>
      <trkpt lat="48.34734" lon="-3.23982">
        <ele>235.18</ele>
        <time>2020-08-13T12:54:53Z</time>
      </trkpt>
      <trkpt lat="48.34753" lon="-3.24009">
        <ele>235.18</ele>
        <time>2020-08-13T12:55:17Z</time>
      </trkpt>
      <trkpt lat="48.34777" lon="-3.24033">
        <ele>232.78</ele>
        <time>2020-08-13T12:55:37Z</time>
      </trkpt>
      <trkpt lat="48.34798" lon="-3.24054">
        <ele>231.81</ele>
        <time>2020-08-13T12:55:58Z</time>
      </trkpt>
      <trkpt lat="48.34803" lon="-3.24072">
        <ele>231.33</ele>
        <time>2020-08-13T12:56:17Z</time>
      </trkpt>
      <trkpt lat="48.34804" lon="-3.24074">
        <ele>231.33</ele>
        <time>2020-08-13T12:56:18Z</time>
      </trkpt>
      <trkpt lat="48.34819" lon="-3.24092">
        <ele>230.85</ele>
        <time>2020-08-13T12:56:36Z</time>
      </trkpt>
      <trkpt lat="48.34829" lon="-3.24108">
        <ele>231.33</ele>
        <time>2020-08-13T12:56:53Z</time>
      </trkpt>
      <trkpt lat="48.34839" lon="-3.2412">
        <ele>228.45</ele>
        <time>2020-08-13T12:57:09Z</time>
      </trkpt>
      <trkpt lat="48.3484" lon="-3.24121">
        <ele>231.33</ele>
        <time>2020-08-13T12:57:10Z</time>
      </trkpt>
      <trkpt lat="48.34836" lon="-3.24132">
        <ele>230.85</ele>
        <time>2020-08-13T12:57:27Z</time>
      </trkpt>
      <trkpt lat="48.34836" lon="-3.24133">
        <ele>228.93</ele>
        <time>2020-08-13T12:57:29Z</time>
      </trkpt>
      <trkpt lat="48.34845" lon="-3.24162">
        <ele>229.89</ele>
        <time>2020-08-13T12:57:48Z</time>
      </trkpt>
      <trkpt lat="48.34845" lon="-3.24174">
        <ele>229.89</ele>
        <time>2020-08-13T12:58:11Z</time>
      </trkpt>
      <trkpt lat="48.34848" lon="-3.24196">
        <ele>230.85</ele>
        <time>2020-08-13T12:58:32Z</time>
      </trkpt>
      <trkpt lat="48.34853" lon="-3.24196">
        <ele>230.85</ele>
        <time>2020-08-13T12:58:55Z</time>
      </trkpt>
      <trkpt lat="48.34852" lon="-3.24204">
        <ele>230.85</ele>
        <time>2020-08-13T12:59:17Z</time>
      </trkpt>
      <trkpt lat="48.34847" lon="-3.24199">
        <ele>230.85</ele>
        <time>2020-08-13T12:59:43Z</time>
      </trkpt>
      <trkpt lat="48.34843" lon="-3.24201">
        <ele>230.85</ele>
        <time>2020-08-13T13:00:13Z</time>
      </trkpt>
      <trkpt lat="48.34841" lon="-3.24206">
        <ele>231.33</ele>
        <time>2020-08-13T13:00:38Z</time>
      </trkpt>
      <trkpt lat="48.34846" lon="-3.24213">
        <ele>232.78</ele>
        <time>2020-08-13T13:00:59Z</time>
      </trkpt>
      <trkpt lat="48.34846" lon="-3.2423">
        <ele>233.26</ele>
        <time>2020-08-13T13:01:20Z</time>
      </trkpt>
      <trkpt lat="48.34849" lon="-3.24254">
        <ele>235.18</ele>
        <time>2020-08-13T13:01:43Z</time>
      </trkpt>
      <trkpt lat="48.34864" lon="-3.24262">
        <ele>238.54</ele>
        <time>2020-08-13T13:02:02Z</time>
      </trkpt>
      <trkpt lat="48.34874" lon="-3.24264">
        <ele>240.47</ele>
        <time>2020-08-13T13:02:11Z</time>
      </trkpt>
      <trkpt lat="48.34889" lon="-3.24268">
        <ele>242.39</ele>
        <time>2020-08-13T13:02:30Z</time>
      </trkpt>
      <trkpt lat="48.34908" lon="-3.24284">
        <ele>243.83</ele>
        <time>2020-08-13T13:02:53Z</time>
      </trkpt>
      <trkpt lat="48.34929" lon="-3.24297">
        <ele>245.27</ele>
        <time>2020-08-13T13:03:12Z</time>
      </trkpt>
      <trkpt lat="48.34949" lon="-3.24311">
        <ele>247.2</ele>
        <time>2020-08-13T13:03:33Z</time>
      </trkpt>
      <trkpt lat="48.3498" lon="-3.24325">
        <ele>247.68</ele>
        <time>2020-08-13T13:03:57Z</time>
      </trkpt>
      <trkpt lat="48.34999" lon="-3.24332">
        <ele>249.12</ele>
        <time>2020-08-13T13:04:16Z</time>
      </trkpt>
      <trkpt lat="48.3502" lon="-3.24343">
        <ele>248.64</ele>
        <time>2020-08-13T13:04:32Z</time>
      </trkpt>
      <trkpt lat="48.35023" lon="-3.24347">
        <ele>249.6</ele>
        <time>2020-08-13T13:04:35Z</time>
      </trkpt>
      <trkpt lat="48.35048" lon="-3.24374">
        <ele>250.56</ele>
        <time>2020-08-13T13:04:59Z</time>
      </trkpt>
      <trkpt lat="48.35065" lon="-3.24387">
        <ele>251.52</ele>
        <time>2020-08-13T13:05:16Z</time>
      </trkpt>
      <trkpt lat="48.35092" lon="-3.24393">
        <ele>252.48</ele>
        <time>2020-08-13T13:05:38Z</time>
      </trkpt>
      <trkpt lat="48.35111" lon="-3.24407">
        <ele>253.93</ele>
        <time>2020-08-13T13:05:57Z</time>
      </trkpt>
      <trkpt lat="48.35115" lon="-3.24411">
        <ele>254.41</ele>
        <time>2020-08-13T13:06:01Z</time>
      </trkpt>
      <trkpt lat="48.35121" lon="-3.24415">
        <ele>254.41</ele>
        <time>2020-08-13T13:06:05Z</time>
      </trkpt>
      <trkpt lat="48.35121" lon="-3.24447">
        <ele>254.41</ele>
        <time>2020-08-13T13:06:23Z</time>
      </trkpt>
      <trkpt lat="48.35123" lon="-3.24477">
        <ele>255.37</ele>
        <time>2020-08-13T13:06:41Z</time>
      </trkpt>
      <trkpt lat="48.35128" lon="-3.2449">
        <ele>255.37</ele>
        <time>2020-08-13T13:06:51Z</time>
      </trkpt>
      <trkpt lat="48.35135" lon="-3.24497">
        <ele>256.33</ele>
        <time>2020-08-13T13:06:59Z</time>
      </trkpt>
      <trkpt lat="48.35137" lon="-3.24497">
        <ele>256.33</ele>
        <time>2020-08-13T13:07:01Z</time>
      </trkpt>
      <trkpt lat="48.35157" lon="-3.24506">
        <ele>256.81</ele>
        <time>2020-08-13T13:07:18Z</time>
      </trkpt>
      <trkpt lat="48.35169" lon="-3.24512">
        <ele>258.25</ele>
        <time>2020-08-13T13:07:30Z</time>
      </trkpt>
      <trkpt lat="48.35187" lon="-3.2452">
        <ele>258.25</ele>
        <time>2020-08-13T13:07:45Z</time>
      </trkpt>
      <trkpt lat="48.35207" lon="-3.24535">
        <ele>259.21</ele>
        <time>2020-08-13T13:08:02Z</time>
      </trkpt>
      <trkpt lat="48.35225" lon="-3.24551">
        <ele>259.21</ele>
        <time>2020-08-13T13:08:19Z</time>
      </trkpt>
      <trkpt lat="48.35245" lon="-3.24571">
        <ele>259.69</ele>
        <time>2020-08-13T13:08:37Z</time>
      </trkpt>
      <trkpt lat="48.35251" lon="-3.24576">
        <ele>258.25</ele>
        <time>2020-08-13T13:08:42Z</time>
      </trkpt>
      <trkpt lat="48.35259" lon="-3.24587">
        <ele>259.69</ele>
        <time>2020-08-13T13:08:51Z</time>
      </trkpt>
      <trkpt lat="48.35263" lon="-3.24593">
        <ele>258.25</ele>
        <time>2020-08-13T13:08:56Z</time>
      </trkpt>
      <trkpt lat="48.35286" lon="-3.24615">
        <ele>257.77</ele>
        <time>2020-08-13T13:09:16Z</time>
      </trkpt>
      <trkpt lat="48.35306" lon="-3.24634">
        <ele>256.81</ele>
        <time>2020-08-13T13:09:36Z</time>
      </trkpt>
      <trkpt lat="48.35328" lon="-3.24649">
        <ele>256.33</ele>
        <time>2020-08-13T13:09:54Z</time>
      </trkpt>
      <trkpt lat="48.35336" lon="-3.24657">
        <ele>257.77</ele>
        <time>2020-08-13T13:10:02Z</time>
      </trkpt>
      <trkpt lat="48.35358" lon="-3.24674">
        <ele>258.73</ele>
        <time>2020-08-13T13:10:22Z</time>
      </trkpt>
      <trkpt lat="48.3538" lon="-3.24684">
        <ele>258.25</ele>
        <time>2020-08-13T13:10:38Z</time>
      </trkpt>
      <trkpt lat="48.35392" lon="-3.24693">
        <ele>259.69</ele>
        <time>2020-08-13T13:10:49Z</time>
      </trkpt>
      <trkpt lat="48.35415" lon="-3.24706">
        <ele>260.17</ele>
        <time>2020-08-13T13:11:10Z</time>
      </trkpt>
      <trkpt lat="48.35431" lon="-3.24679">
        <ele>259.21</ele>
        <time>2020-08-13T13:11:28Z</time>
      </trkpt>
      <trkpt lat="48.35454" lon="-3.24691">
        <ele>257.77</ele>
        <time>2020-08-13T13:11:48Z</time>
      </trkpt>
      <trkpt lat="48.35481" lon="-3.24707">
        <ele>255.85</ele>
        <time>2020-08-13T13:12:12Z</time>
      </trkpt>
      <trkpt lat="48.35505" lon="-3.24734">
        <ele>254.41</ele>
        <time>2020-08-13T13:12:33Z</time>
      </trkpt>
      <trkpt lat="48.35522" lon="-3.2476">
        <ele>253.93</ele>
        <time>2020-08-13T13:12:56Z</time>
      </trkpt>
      <trkpt lat="48.35544" lon="-3.24764">
        <ele>255.37</ele>
        <time>2020-08-13T13:13:14Z</time>
      </trkpt>
      <trkpt lat="48.3556" lon="-3.2477">
        <ele>257.29</ele>
        <time>2020-08-13T13:13:27Z</time>
      </trkpt>
      <trkpt lat="48.3557" lon="-3.24778">
        <ele>258.25</ele>
        <time>2020-08-13T13:13:37Z</time>
      </trkpt>
      <trkpt lat="48.35589" lon="-3.2479">
        <ele>260.17</ele>
        <time>2020-08-13T13:13:53Z</time>
      </trkpt>
      <trkpt lat="48.3561" lon="-3.24804">
        <ele>261.14</ele>
        <time>2020-08-13T13:14:11Z</time>
      </trkpt>
      <trkpt lat="48.35613" lon="-3.24805">
        <ele>259.69</ele>
        <time>2020-08-13T13:14:13Z</time>
      </trkpt>
      <trkpt lat="48.35629" lon="-3.24814">
        <ele>260.65</ele>
        <time>2020-08-13T13:14:26Z</time>
      </trkpt>
      <trkpt lat="48.35653" lon="-3.24832">
        <ele>258.25</ele>
        <time>2020-08-13T13:14:46Z</time>
      </trkpt>
      <trkpt lat="48.35675" lon="-3.24852">
        <ele>257.29</ele>
        <time>2020-08-13T13:15:08Z</time>
      </trkpt>
      <trkpt lat="48.35689" lon="-3.24865">
        <ele>258.73</ele>
        <time>2020-08-13T13:15:20Z</time>
      </trkpt>
      <trkpt lat="48.35694" lon="-3.24869">
        <ele>257.29</ele>
        <time>2020-08-13T13:15:24Z</time>
      </trkpt>
      <trkpt lat="48.35704" lon="-3.24877">
        <ele>258.73</ele>
        <time>2020-08-13T13:15:34Z</time>
      </trkpt>
      <trkpt lat="48.35727" lon="-3.24893">
        <ele>260.17</ele>
        <time>2020-08-13T13:15:55Z</time>
      </trkpt>
      <trkpt lat="48.35737" lon="-3.24897">
        <ele>259.69</ele>
        <time>2020-08-13T13:16:04Z</time>
      </trkpt>
      <trkpt lat="48.3574" lon="-3.24899">
        <ele>261.62</ele>
        <time>2020-08-13T13:16:07Z</time>
      </trkpt>
      <trkpt lat="48.35764" lon="-3.2492">
        <ele>262.1</ele>
        <time>2020-08-13T13:16:30Z</time>
      </trkpt>
      <trkpt lat="48.35775" lon="-3.2493">
        <ele>262.1</ele>
        <time>2020-08-13T13:16:40Z</time>
      </trkpt>
      <trkpt lat="48.35786" lon="-3.24956">
        <ele>260.65</ele>
        <time>2020-08-13T13:16:56Z</time>
      </trkpt>
      <trkpt lat="48.35801" lon="-3.24988">
        <ele>260.17</ele>
        <time>2020-08-13T13:17:16Z</time>
      </trkpt>
      <trkpt lat="48.35821" lon="-3.25019">
        <ele>258.73</ele>
        <time>2020-08-13T13:17:39Z</time>
      </trkpt>
      <trkpt lat="48.3584" lon="-3.25032">
        <ele>257.29</ele>
        <time>2020-08-13T13:17:56Z</time>
      </trkpt>
      <trkpt lat="48.35864" lon="-3.25042">
        <ele>256.81</ele>
        <time>2020-08-13T13:18:14Z</time>
      </trkpt>
      <trkpt lat="48.35865" lon="-3.25042">
        <ele>256.81</ele>
        <time>2020-08-13T13:18:15Z</time>
      </trkpt>
      <trkpt lat="48.35876" lon="-3.25049">
        <ele>255.85</ele>
        <time>2020-08-13T13:18:24Z</time>
      </trkpt>
      <trkpt lat="48.35899" lon="-3.2506">
        <ele>254.41</ele>
        <time>2020-08-13T13:18:45Z</time>
      </trkpt>
      <trkpt lat="48.35924" lon="-3.25072">
        <ele>252.96</ele>
        <time>2020-08-13T13:19:03Z</time>
      </trkpt>
      <trkpt lat="48.35942" lon="-3.25098">
        <ele>251.04</ele>
        <time>2020-08-13T13:19:21Z</time>
      </trkpt>
      <trkpt lat="48.35943" lon="-3.2513">
        <ele>248.16</ele>
        <time>2020-08-13T13:19:37Z</time>
      </trkpt>
      <trkpt lat="48.35935" lon="-3.25165">
        <ele>245.27</ele>
        <time>2020-08-13T13:19:56Z</time>
      </trkpt>
      <trkpt lat="48.35926" lon="-3.25199">
        <ele>242.87</ele>
        <time>2020-08-13T13:20:15Z</time>
      </trkpt>
      <trkpt lat="48.35911" lon="-3.25234">
        <ele>239.99</ele>
        <time>2020-08-13T13:20:36Z</time>
      </trkpt>
      <trkpt lat="48.35894" lon="-3.25267">
        <ele>237.58</ele>
        <time>2020-08-13T13:20:58Z</time>
      </trkpt>
      <trkpt lat="48.35875" lon="-3.25293">
        <ele>234.7</ele>
        <time>2020-08-13T13:21:19Z</time>
      </trkpt>
      <trkpt lat="48.35871" lon="-3.25327">
        <ele>233.26</ele>
        <time>2020-08-13T13:21:37Z</time>
      </trkpt>
      <trkpt lat="48.35872" lon="-3.25366">
        <ele>231.33</ele>
        <time>2020-08-13T13:21:57Z</time>
      </trkpt>
      <trkpt lat="48.35873" lon="-3.25411">
        <ele>229.89</ele>
        <time>2020-08-13T13:22:20Z</time>
      </trkpt>
      <trkpt lat="48.35873" lon="-3.25436">
        <ele>228.45</ele>
        <time>2020-08-13T13:22:37Z</time>
      </trkpt>
      <trkpt lat="48.35872" lon="-3.25437">
        <ele>228.45</ele>
        <time>2020-08-13T13:23:07Z</time>
      </trkpt>
      <trkpt lat="48.35871" lon="-3.25439">
        <ele>227.97</ele>
        <time>2020-08-13T13:23:42Z</time>
      </trkpt>
      <trkpt lat="48.35873" lon="-3.25439">
        <ele>227.97</ele>
        <time>2020-08-13T13:24:12Z</time>
      </trkpt>
      <trkpt lat="48.35868" lon="-3.25439">
        <ele>227.97</ele>
        <time>2020-08-13T13:24:40Z</time>
      </trkpt>
      <trkpt lat="48.3587" lon="-3.25442">
        <ele>227.97</ele>
        <time>2020-08-13T13:25:07Z</time>
      </trkpt>
      <trkpt lat="48.35858" lon="-3.25436">
        <ele>227.49</ele>
        <time>2020-08-13T13:25:29Z</time>
      </trkpt>
      <trkpt lat="48.35841" lon="-3.25417">
        <ele>225.09</ele>
        <time>2020-08-13T13:25:50Z</time>
      </trkpt>
      <trkpt lat="48.35837" lon="-3.25408">
        <ele>222.2</ele>
        <time>2020-08-13T13:25:59Z</time>
      </trkpt>
      <trkpt lat="48.35833" lon="-3.25406">
        <ele>223.16</ele>
        <time>2020-08-13T13:26:04Z</time>
      </trkpt>
      <trkpt lat="48.35818" lon="-3.25413">
        <ele>225.57</ele>
        <time>2020-08-13T13:26:18Z</time>
      </trkpt>
      <trkpt lat="48.35813" lon="-3.25405">
        <ele>227.49</ele>
        <time>2020-08-13T13:26:28Z</time>
      </trkpt>
      <trkpt lat="48.35788" lon="-3.25415">
        <ele>229.41</ele>
        <time>2020-08-13T13:26:49Z</time>
      </trkpt>
      <trkpt lat="48.35764" lon="-3.2543">
        <ele>229.89</ele>
        <time>2020-08-13T13:27:13Z</time>
      </trkpt>
      <trkpt lat="48.35749" lon="-3.25441">
        <ele>228.93</ele>
        <time>2020-08-13T13:27:25Z</time>
      </trkpt>
      <trkpt lat="48.35722" lon="-3.2546">
        <ele>228.93</ele>
        <time>2020-08-13T13:27:49Z</time>
      </trkpt>
      <trkpt lat="48.35716" lon="-3.2546">
        <ele>227.49</ele>
        <time>2020-08-13T13:27:53Z</time>
      </trkpt>
      <trkpt lat="48.357" lon="-3.2546">
        <ele>230.85</ele>
        <time>2020-08-13T13:28:06Z</time>
      </trkpt>
      <trkpt lat="48.35699" lon="-3.25459">
        <ele>230.85</ele>
        <time>2020-08-13T13:28:07Z</time>
      </trkpt>
      <trkpt lat="48.3567" lon="-3.25461">
        <ele>231.81</ele>
        <time>2020-08-13T13:28:30Z</time>
      </trkpt>
      <trkpt lat="48.35638" lon="-3.25467">
        <ele>228.93</ele>
        <time>2020-08-13T13:28:55Z</time>
      </trkpt>
      <trkpt lat="48.35624" lon="-3.25464">
        <ele>225.57</ele>
        <time>2020-08-13T13:29:12Z</time>
      </trkpt>
      <trkpt lat="48.35608" lon="-3.25466">
        <ele>226.05</ele>
        <time>2020-08-13T13:29:28Z</time>
      </trkpt>
      <trkpt lat="48.35603" lon="-3.25478">
        <ele>228.93</ele>
        <time>2020-08-13T13:29:40Z</time>
      </trkpt>
      <trkpt lat="48.35596" lon="-3.2549">
        <ele>227.01</ele>
        <time>2020-08-13T13:29:49Z</time>
      </trkpt>
      <trkpt lat="48.35574" lon="-3.2551">
        <ele>225.09</ele>
        <time>2020-08-13T13:30:11Z</time>
      </trkpt>
      <trkpt lat="48.35553" lon="-3.25525">
        <ele>222.68</ele>
        <time>2020-08-13T13:30:31Z</time>
      </trkpt>
      <trkpt lat="48.35532" lon="-3.25531">
        <ele>222.2</ele>
        <time>2020-08-13T13:30:50Z</time>
      </trkpt>
      <trkpt lat="48.35529" lon="-3.25531">
        <ele>223.16</ele>
        <time>2020-08-13T13:30:52Z</time>
      </trkpt>
      <trkpt lat="48.35507" lon="-3.25523">
        <ele>224.12</ele>
        <time>2020-08-13T13:31:14Z</time>
      </trkpt>
      <trkpt lat="48.3549" lon="-3.25497">
        <ele>227.01</ele>
        <time>2020-08-13T13:31:34Z</time>
      </trkpt>
      <trkpt lat="48.35489" lon="-3.25497">
        <ele>227.01</ele>
        <time>2020-08-13T13:31:35Z</time>
      </trkpt>
      <trkpt lat="48.35479" lon="-3.25461">
        <ele>225.09</ele>
        <time>2020-08-13T13:31:54Z</time>
      </trkpt>
      <trkpt lat="48.35478" lon="-3.25436">
        <ele>225.57</ele>
        <time>2020-08-13T13:32:10Z</time>
      </trkpt>
      <trkpt lat="48.35474" lon="-3.25426">
        <ele>224.12</ele>
        <time>2020-08-13T13:32:16Z</time>
      </trkpt>
      <trkpt lat="48.35466" lon="-3.25409">
        <ele>221.24</ele>
        <time>2020-08-13T13:32:30Z</time>
      </trkpt>
      <trkpt lat="48.35464" lon="-3.25409">
        <ele>222.68</ele>
        <time>2020-08-13T13:32:35Z</time>
      </trkpt>
      <trkpt lat="48.35461" lon="-3.25409">
        <ele>224.12</ele>
        <time>2020-08-13T13:32:38Z</time>
      </trkpt>
      <trkpt lat="48.35447" lon="-3.25436">
        <ele>225.57</ele>
        <time>2020-08-13T13:33:01Z</time>
      </trkpt>
      <trkpt lat="48.3544" lon="-3.25449">
        <ele>224.61</ele>
        <time>2020-08-13T13:33:10Z</time>
      </trkpt>
      <trkpt lat="48.35426" lon="-3.2547">
        <ele>224.12</ele>
        <time>2020-08-13T13:33:29Z</time>
      </trkpt>
      <trkpt lat="48.35424" lon="-3.25473">
        <ele>225.57</ele>
        <time>2020-08-13T13:33:32Z</time>
      </trkpt>
      <trkpt lat="48.35403" lon="-3.25484">
        <ele>225.57</ele>
        <time>2020-08-13T13:33:46Z</time>
      </trkpt>
      <trkpt lat="48.35381" lon="-3.25486">
        <ele>225.57</ele>
        <time>2020-08-13T13:34:02Z</time>
      </trkpt>
      <trkpt lat="48.35356" lon="-3.25473">
        <ele>226.53</ele>
        <time>2020-08-13T13:34:23Z</time>
      </trkpt>
      <trkpt lat="48.35353" lon="-3.25471">
        <ele>227.97</ele>
        <time>2020-08-13T13:34:26Z</time>
      </trkpt>
      <trkpt lat="48.35333" lon="-3.25459">
        <ele>229.89</ele>
        <time>2020-08-13T13:34:47Z</time>
      </trkpt>
      <trkpt lat="48.35328" lon="-3.25457">
        <ele>227.97</ele>
        <time>2020-08-13T13:34:51Z</time>
      </trkpt>
      <trkpt lat="48.35325" lon="-3.25457">
        <ele>229.41</ele>
        <time>2020-08-13T13:34:53Z</time>
      </trkpt>
      <trkpt lat="48.35321" lon="-3.25457">
        <ele>228.45</ele>
        <time>2020-08-13T13:34:56Z</time>
      </trkpt>
      <trkpt lat="48.35303" lon="-3.25457">
        <ele>227.97</ele>
        <time>2020-08-13T13:35:13Z</time>
      </trkpt>
      <trkpt lat="48.35285" lon="-3.25467">
        <ele>228.45</ele>
        <time>2020-08-13T13:35:31Z</time>
      </trkpt>
      <trkpt lat="48.35262" lon="-3.25456">
        <ele>229.41</ele>
        <time>2020-08-13T13:35:48Z</time>
      </trkpt>
      <trkpt lat="48.35246" lon="-3.25455">
        <ele>229.89</ele>
        <time>2020-08-13T13:36:01Z</time>
      </trkpt>
      <trkpt lat="48.35243" lon="-3.25455">
        <ele>228.45</ele>
        <time>2020-08-13T13:36:04Z</time>
      </trkpt>
      <trkpt lat="48.35228" lon="-3.2545">
        <ele>228.93</ele>
        <time>2020-08-13T13:36:16Z</time>
      </trkpt>
      <trkpt lat="48.35226" lon="-3.2545">
        <ele>227.97</ele>
        <time>2020-08-13T13:36:18Z</time>
      </trkpt>
      <trkpt lat="48.35199" lon="-3.25446">
        <ele>225.57</ele>
        <time>2020-08-13T13:36:38Z</time>
      </trkpt>
      <trkpt lat="48.35174" lon="-3.25433">
        <ele>223.64</ele>
        <time>2020-08-13T13:37:00Z</time>
      </trkpt>
      <trkpt lat="48.35159" lon="-3.25401">
        <ele>222.2</ele>
        <time>2020-08-13T13:37:23Z</time>
      </trkpt>
      <trkpt lat="48.35138" lon="-3.25382">
        <ele>223.64</ele>
        <time>2020-08-13T13:37:42Z</time>
      </trkpt>
      <trkpt lat="48.35126" lon="-3.25399">
        <ele>225.09</ele>
        <time>2020-08-13T13:37:57Z</time>
      </trkpt>
      <trkpt lat="48.3512" lon="-3.25403">
        <ele>226.05</ele>
        <time>2020-08-13T13:38:03Z</time>
      </trkpt>
      <trkpt lat="48.35116" lon="-3.25408">
        <ele>224.61</ele>
        <time>2020-08-13T13:38:07Z</time>
      </trkpt>
      <trkpt lat="48.35092" lon="-3.25416">
        <ele>224.61</ele>
        <time>2020-08-13T13:38:29Z</time>
      </trkpt>
      <trkpt lat="48.35075" lon="-3.25408">
        <ele>225.57</ele>
        <time>2020-08-13T13:38:52Z</time>
      </trkpt>
      <trkpt lat="48.35066" lon="-3.25401">
        <ele>226.05</ele>
        <time>2020-08-13T13:38:57Z</time>
      </trkpt>
      <trkpt lat="48.3506" lon="-3.25401">
        <ele>224.61</ele>
        <time>2020-08-13T13:39:00Z</time>
      </trkpt>
      <trkpt lat="48.3505" lon="-3.25393">
        <ele>225.57</ele>
        <time>2020-08-13T13:39:08Z</time>
      </trkpt>
      <trkpt lat="48.35043" lon="-3.25377">
        <ele>224.12</ele>
        <time>2020-08-13T13:39:19Z</time>
      </trkpt>
      <trkpt lat="48.3502" lon="-3.25365">
        <ele>224.12</ele>
        <time>2020-08-13T13:39:40Z</time>
      </trkpt>
      <trkpt lat="48.35019" lon="-3.25365">
        <ele>224.12</ele>
        <time>2020-08-13T13:39:41Z</time>
      </trkpt>
      <trkpt lat="48.35003" lon="-3.25369">
        <ele>227.49</ele>
        <time>2020-08-13T13:39:58Z</time>
      </trkpt>
      <trkpt lat="48.34995" lon="-3.25371">
        <ele>227.49</ele>
        <time>2020-08-13T13:40:04Z</time>
      </trkpt>
      <trkpt lat="48.34994" lon="-3.25372">
        <ele>226.05</ele>
        <time>2020-08-13T13:40:07Z</time>
      </trkpt>
      <trkpt lat="48.34968" lon="-3.25369">
        <ele>225.57</ele>
        <time>2020-08-13T13:40:27Z</time>
      </trkpt>
      <trkpt lat="48.34956" lon="-3.25364">
        <ele>224.12</ele>
        <time>2020-08-13T13:40:36Z</time>
      </trkpt>
      <trkpt lat="48.34941" lon="-3.25348">
        <ele>223.64</ele>
        <time>2020-08-13T13:40:51Z</time>
      </trkpt>
      <trkpt lat="48.34941" lon="-3.25345">
        <ele>225.57</ele>
        <time>2020-08-13T13:40:53Z</time>
      </trkpt>
      <trkpt lat="48.34936" lon="-3.25334">
        <ele>224.61</ele>
        <time>2020-08-13T13:41:00Z</time>
      </trkpt>
      <trkpt lat="48.34924" lon="-3.25311">
        <ele>225.09</ele>
        <time>2020-08-13T13:41:17Z</time>
      </trkpt>
      <trkpt lat="48.34922" lon="-3.25283">
        <ele>224.12</ele>
        <time>2020-08-13T13:41:30Z</time>
      </trkpt>
      <trkpt lat="48.34923" lon="-3.25266">
        <ele>225.57</ele>
        <time>2020-08-13T13:41:38Z</time>
      </trkpt>
      <trkpt lat="48.34923" lon="-3.25263">
        <ele>224.12</ele>
        <time>2020-08-13T13:41:40Z</time>
      </trkpt>
      <trkpt lat="48.34922" lon="-3.25245">
        <ele>225.09</ele>
        <time>2020-08-13T13:41:51Z</time>
      </trkpt>
      <trkpt lat="48.34923" lon="-3.25236">
        <ele>225.09</ele>
        <time>2020-08-13T13:41:56Z</time>
      </trkpt>
      <trkpt lat="48.34921" lon="-3.25212">
        <ele>225.57</ele>
        <time>2020-08-13T13:42:12Z</time>
      </trkpt>
      <trkpt lat="48.34914" lon="-3.25192">
        <ele>223.16</ele>
        <time>2020-08-13T13:42:21Z</time>
      </trkpt>
      <trkpt lat="48.34912" lon="-3.25179">
        <ele>225.57</ele>
        <time>2020-08-13T13:42:30Z</time>
      </trkpt>
      <trkpt lat="48.34911" lon="-3.25173">
        <ele>224.12</ele>
        <time>2020-08-13T13:42:32Z</time>
      </trkpt>
      <trkpt lat="48.34911" lon="-3.25162">
        <ele>223.64</ele>
        <time>2020-08-13T13:42:37Z</time>
      </trkpt>
      <trkpt lat="48.3491" lon="-3.25151">
        <ele>222.2</ele>
        <time>2020-08-13T13:42:42Z</time>
      </trkpt>
      <trkpt lat="48.34909" lon="-3.25144">
        <ele>223.16</ele>
        <time>2020-08-13T13:42:46Z</time>
      </trkpt>
      <trkpt lat="48.34898" lon="-3.25115">
        <ele>224.61</ele>
        <time>2020-08-13T13:43:07Z</time>
      </trkpt>
      <trkpt lat="48.34889" lon="-3.251">
        <ele>222.68</ele>
        <time>2020-08-13T13:43:22Z</time>
      </trkpt>
      <trkpt lat="48.34888" lon="-3.25101">
        <ele>224.12</ele>
        <time>2020-08-13T13:43:24Z</time>
      </trkpt>
      <trkpt lat="48.34885" lon="-3.25106">
        <ele>225.57</ele>
        <time>2020-08-13T13:43:29Z</time>
      </trkpt>
      <trkpt lat="48.34872" lon="-3.25114">
        <ele>227.49</ele>
        <time>2020-08-13T13:43:44Z</time>
      </trkpt>
      <trkpt lat="48.34868" lon="-3.25116">
        <ele>228.93</ele>
        <time>2020-08-13T13:43:50Z</time>
      </trkpt>
      <trkpt lat="48.34857" lon="-3.25122">
        <ele>231.33</ele>
        <time>2020-08-13T13:44:00Z</time>
      </trkpt>
      <trkpt lat="48.34848" lon="-3.2513">
        <ele>230.37</ele>
        <time>2020-08-13T13:44:11Z</time>
      </trkpt>
      <trkpt lat="48.34839" lon="-3.25135">
        <ele>230.37</ele>
        <time>2020-08-13T13:44:19Z</time>
      </trkpt>
      <trkpt lat="48.34824" lon="-3.2514">
        <ele>228.93</ele>
        <time>2020-08-13T13:44:30Z</time>
      </trkpt>
      <trkpt lat="48.34815" lon="-3.25148">
        <ele>229.89</ele>
        <time>2020-08-13T13:44:37Z</time>
      </trkpt>
      <trkpt lat="48.34813" lon="-3.25149">
        <ele>228.45</ele>
        <time>2020-08-13T13:44:39Z</time>
      </trkpt>
      <trkpt lat="48.34808" lon="-3.2515">
        <ele>229.89</ele>
        <time>2020-08-13T13:44:43Z</time>
      </trkpt>
      <trkpt lat="48.34791" lon="-3.25156">
        <ele>227.01</ele>
        <time>2020-08-13T13:44:57Z</time>
      </trkpt>
      <trkpt lat="48.3479" lon="-3.25156">
        <ele>230.85</ele>
        <time>2020-08-13T13:44:58Z</time>
      </trkpt>
      <trkpt lat="48.34785" lon="-3.25153">
        <ele>230.85</ele>
        <time>2020-08-13T13:45:03Z</time>
      </trkpt>
      <trkpt lat="48.34768" lon="-3.2515">
        <ele>228.45</ele>
        <time>2020-08-13T13:45:19Z</time>
      </trkpt>
      <trkpt lat="48.34766" lon="-3.25148">
        <ele>229.89</ele>
        <time>2020-08-13T13:45:21Z</time>
      </trkpt>
      <trkpt lat="48.34764" lon="-3.25144">
        <ele>227.97</ele>
        <time>2020-08-13T13:45:24Z</time>
      </trkpt>
      <trkpt lat="48.34763" lon="-3.25133">
        <ele>230.85</ele>
        <time>2020-08-13T13:45:31Z</time>
      </trkpt>
      <trkpt lat="48.34767" lon="-3.25121">
        <ele>229.41</ele>
        <time>2020-08-13T13:45:38Z</time>
      </trkpt>
      <trkpt lat="48.34767" lon="-3.2511">
        <ele>229.41</ele>
        <time>2020-08-13T13:45:46Z</time>
      </trkpt>
      <trkpt lat="48.34771" lon="-3.25079">
        <ele>226.05</ele>
        <time>2020-08-13T13:46:04Z</time>
      </trkpt>
      <trkpt lat="48.34768" lon="-3.2507">
        <ele>224.12</ele>
        <time>2020-08-13T13:46:10Z</time>
      </trkpt>
      <trkpt lat="48.34768" lon="-3.25037">
        <ele>221.72</ele>
        <time>2020-08-13T13:46:30Z</time>
      </trkpt>
      <trkpt lat="48.34758" lon="-3.25042">
        <ele>220.28</ele>
        <time>2020-08-13T13:46:49Z</time>
      </trkpt>
      <trkpt lat="48.34749" lon="-3.25051">
        <ele>221.24</ele>
        <time>2020-08-13T13:47:00Z</time>
      </trkpt>
      <trkpt lat="48.34746" lon="-3.25054">
        <ele>223.16</ele>
        <time>2020-08-13T13:47:02Z</time>
      </trkpt>
      <trkpt lat="48.34743" lon="-3.25056">
        <ele>221.72</ele>
        <time>2020-08-13T13:47:05Z</time>
      </trkpt>
      <trkpt lat="48.34741" lon="-3.25056">
        <ele>224.12</ele>
        <time>2020-08-13T13:47:07Z</time>
      </trkpt>
      <trkpt lat="48.34738" lon="-3.25056">
        <ele>222.2</ele>
        <time>2020-08-13T13:47:10Z</time>
      </trkpt>
      <trkpt lat="48.34733" lon="-3.25056">
        <ele>225.09</ele>
        <time>2020-08-13T13:47:16Z</time>
      </trkpt>
      <trkpt lat="48.34728" lon="-3.25057">
        <ele>225.09</ele>
        <time>2020-08-13T13:47:20Z</time>
      </trkpt>
      <trkpt lat="48.34723" lon="-3.25061">
        <ele>228.45</ele>
        <time>2020-08-13T13:47:27Z</time>
      </trkpt>
      <trkpt lat="48.34722" lon="-3.2507">
        <ele>225.09</ele>
        <time>2020-08-13T13:47:32Z</time>
      </trkpt>
      <trkpt lat="48.34712" lon="-3.25082">
        <ele>226.53</ele>
        <time>2020-08-13T13:47:40Z</time>
      </trkpt>
      <trkpt lat="48.34694" lon="-3.25107">
        <ele>224.61</ele>
        <time>2020-08-13T13:47:59Z</time>
      </trkpt>
      <trkpt lat="48.34692" lon="-3.25108">
        <ele>226.05</ele>
        <time>2020-08-13T13:48:01Z</time>
      </trkpt>
      <trkpt lat="48.34686" lon="-3.25109">
        <ele>224.61</ele>
        <time>2020-08-13T13:48:05Z</time>
      </trkpt>
      <trkpt lat="48.34674" lon="-3.25123">
        <ele>222.2</ele>
        <time>2020-08-13T13:48:21Z</time>
      </trkpt>
      <trkpt lat="48.3467" lon="-3.25144">
        <ele>219.32</ele>
        <time>2020-08-13T13:48:36Z</time>
      </trkpt>
      <trkpt lat="48.3467" lon="-3.25145">
        <ele>219.32</ele>
        <time>2020-08-13T13:48:37Z</time>
      </trkpt>
      <trkpt lat="48.34667" lon="-3.25148">
        <ele>217.88</ele>
        <time>2020-08-13T13:48:40Z</time>
      </trkpt>
      <trkpt lat="48.34663" lon="-3.25153">
        <ele>217.4</ele>
        <time>2020-08-13T13:48:44Z</time>
      </trkpt>
      <trkpt lat="48.34651" lon="-3.25173">
        <ele>213.07</ele>
        <time>2020-08-13T13:48:57Z</time>
      </trkpt>
      <trkpt lat="48.34651" lon="-3.25174">
        <ele>213.07</ele>
        <time>2020-08-13T13:48:58Z</time>
      </trkpt>
      <trkpt lat="48.34646" lon="-3.25171">
        <ele>213.55</ele>
        <time>2020-08-13T13:49:15Z</time>
      </trkpt>
      <trkpt lat="48.34649" lon="-3.25168">
        <ele>214.03</ele>
        <time>2020-08-13T13:49:48Z</time>
      </trkpt>
      <trkpt lat="48.34649" lon="-3.25165">
        <ele>213.55</ele>
        <time>2020-08-13T13:50:14Z</time>
      </trkpt>
      <trkpt lat="48.34642" lon="-3.25167">
        <ele>213.55</ele>
        <time>2020-08-13T13:50:39Z</time>
      </trkpt>
      <trkpt lat="48.34644" lon="-3.25168">
        <ele>213.55</ele>
        <time>2020-08-13T13:51:06Z</time>
      </trkpt>
      <trkpt lat="48.34642" lon="-3.25171">
        <ele>213.55</ele>
        <time>2020-08-13T13:51:30Z</time>
      </trkpt>
      <trkpt lat="48.3464" lon="-3.25175">
        <ele>213.55</ele>
        <time>2020-08-13T13:51:33Z</time>
      </trkpt>
      <trkpt lat="48.34636" lon="-3.25181">
        <ele>213.55</ele>
        <time>2020-08-13T13:51:38Z</time>
      </trkpt>
      <trkpt lat="48.34632" lon="-3.25187">
        <ele>212.59</ele>
        <time>2020-08-13T13:51:42Z</time>
      </trkpt>
      <trkpt lat="48.34627" lon="-3.2522">
        <ele>213.07</ele>
        <time>2020-08-13T13:52:01Z</time>
      </trkpt>
      <trkpt lat="48.34625" lon="-3.25231">
        <ele>213.55</ele>
        <time>2020-08-13T13:52:08Z</time>
      </trkpt>
      <trkpt lat="48.34623" lon="-3.25244">
        <ele>213.07</ele>
        <time>2020-08-13T13:52:17Z</time>
      </trkpt>
      <trkpt lat="48.34622" lon="-3.2525">
        <ele>214.51</ele>
        <time>2020-08-13T13:52:20Z</time>
      </trkpt>
      <trkpt lat="48.34624" lon="-3.25261">
        <ele>214.03</ele>
        <time>2020-08-13T13:52:27Z</time>
      </trkpt>
      <trkpt lat="48.34623" lon="-3.25265">
        <ele>215.47</ele>
        <time>2020-08-13T13:52:29Z</time>
      </trkpt>
      <trkpt lat="48.34626" lon="-3.25277">
        <ele>216.91</ele>
        <time>2020-08-13T13:52:37Z</time>
      </trkpt>
      <trkpt lat="48.34632" lon="-3.25304">
        <ele>218.36</ele>
        <time>2020-08-13T13:52:56Z</time>
      </trkpt>
      <trkpt lat="48.34633" lon="-3.25305">
        <ele>218.36</ele>
        <time>2020-08-13T13:52:57Z</time>
      </trkpt>
      <trkpt lat="48.34634" lon="-3.25307">
        <ele>220.28</ele>
        <time>2020-08-13T13:52:59Z</time>
      </trkpt>
      <trkpt lat="48.34646" lon="-3.25308">
        <ele>223.64</ele>
        <time>2020-08-13T13:53:15Z</time>
      </trkpt>
      <trkpt lat="48.34647" lon="-3.25308">
        <ele>223.64</ele>
        <time>2020-08-13T13:53:16Z</time>
      </trkpt>
      <trkpt lat="48.3466" lon="-3.25312">
        <ele>225.09</ele>
        <time>2020-08-13T13:53:28Z</time>
      </trkpt>
      <trkpt lat="48.34663" lon="-3.25308">
        <ele>222.68</ele>
        <time>2020-08-13T13:53:31Z</time>
      </trkpt>
      <trkpt lat="48.34665" lon="-3.25307">
        <ele>222.68</ele>
        <time>2020-08-13T13:53:32Z</time>
      </trkpt>
      <trkpt lat="48.34667" lon="-3.25305">
        <ele>224.61</ele>
        <time>2020-08-13T13:53:34Z</time>
      </trkpt>
      <trkpt lat="48.34671" lon="-3.25301">
        <ele>223.16</ele>
        <time>2020-08-13T13:53:37Z</time>
      </trkpt>
      <trkpt lat="48.34686" lon="-3.25294">
        <ele>223.16</ele>
        <time>2020-08-13T13:53:51Z</time>
      </trkpt>
      <trkpt lat="48.34694" lon="-3.25294">
        <ele>223.64</ele>
        <time>2020-08-13T13:53:58Z</time>
      </trkpt>
      <trkpt lat="48.34715" lon="-3.25299">
        <ele>223.64</ele>
        <time>2020-08-13T13:54:15Z</time>
      </trkpt>
      <trkpt lat="48.34718" lon="-3.25301">
        <ele>222.2</ele>
        <time>2020-08-13T13:54:19Z</time>
      </trkpt>
      <trkpt lat="48.3472" lon="-3.25303">
        <ele>224.12</ele>
        <time>2020-08-13T13:54:21Z</time>
      </trkpt>
      <trkpt lat="48.34734" lon="-3.25314">
        <ele>226.05</ele>
        <time>2020-08-13T13:54:38Z</time>
      </trkpt>
      <trkpt lat="48.34755" lon="-3.25326">
        <ele>225.09</ele>
        <time>2020-08-13T13:54:58Z</time>
      </trkpt>
      <trkpt lat="48.34757" lon="-3.25326">
        <ele>223.64</ele>
        <time>2020-08-13T13:55:00Z</time>
      </trkpt>
      <trkpt lat="48.34758" lon="-3.25326">
        <ele>225.09</ele>
        <time>2020-08-13T13:55:02Z</time>
      </trkpt>
      <trkpt lat="48.34774" lon="-3.2533">
        <ele>224.61</ele>
        <time>2020-08-13T13:55:12Z</time>
      </trkpt>
      <trkpt lat="48.34776" lon="-3.25331">
        <ele>225.57</ele>
        <time>2020-08-13T13:55:14Z</time>
      </trkpt>
      <trkpt lat="48.3478" lon="-3.25334">
        <ele>226.05</ele>
        <time>2020-08-13T13:55:18Z</time>
      </trkpt>
      <trkpt lat="48.34798" lon="-3.25349">
        <ele>225.57</ele>
        <time>2020-08-13T13:55:37Z</time>
      </trkpt>
      <trkpt lat="48.348" lon="-3.2535">
        <ele>227.01</ele>
        <time>2020-08-13T13:55:39Z</time>
      </trkpt>
      <trkpt lat="48.34802" lon="-3.25351">
        <ele>224.61</ele>
        <time>2020-08-13T13:55:41Z</time>
      </trkpt>
      <trkpt lat="48.34805" lon="-3.25352">
        <ele>226.53</ele>
        <time>2020-08-13T13:55:44Z</time>
      </trkpt>
      <trkpt lat="48.34809" lon="-3.25356">
        <ele>225.57</ele>
        <time>2020-08-13T13:55:51Z</time>
      </trkpt>
      <trkpt lat="48.3481" lon="-3.25358">
        <ele>227.01</ele>
        <time>2020-08-13T13:55:53Z</time>
      </trkpt>
      <trkpt lat="48.34816" lon="-3.25374">
        <ele>226.05</ele>
        <time>2020-08-13T13:56:02Z</time>
      </trkpt>
      <trkpt lat="48.34818" lon="-3.25378">
        <ele>227.97</ele>
        <time>2020-08-13T13:56:04Z</time>
      </trkpt>
      <trkpt lat="48.3482" lon="-3.25384">
        <ele>226.05</ele>
        <time>2020-08-13T13:56:07Z</time>
      </trkpt>
      <trkpt lat="48.3482" lon="-3.2539">
        <ele>227.49</ele>
        <time>2020-08-13T13:56:09Z</time>
      </trkpt>
      <trkpt lat="48.34826" lon="-3.25412">
        <ele>225.57</ele>
        <time>2020-08-13T13:56:18Z</time>
      </trkpt>
      <trkpt lat="48.34828" lon="-3.25426">
        <ele>226.53</ele>
        <time>2020-08-13T13:56:27Z</time>
      </trkpt>
      <trkpt lat="48.34829" lon="-3.25442">
        <ele>223.16</ele>
        <time>2020-08-13T13:56:38Z</time>
      </trkpt>
      <trkpt lat="48.34816" lon="-3.25474">
        <ele>222.68</ele>
        <time>2020-08-13T13:56:57Z</time>
      </trkpt>
      <trkpt lat="48.34797" lon="-3.25508">
        <ele>222.68</ele>
        <time>2020-08-13T13:57:16Z</time>
      </trkpt>
      <trkpt lat="48.34794" lon="-3.2551">
        <ele>223.64</ele>
        <time>2020-08-13T13:57:18Z</time>
      </trkpt>
      <trkpt lat="48.34786" lon="-3.25508">
        <ele>222.68</ele>
        <time>2020-08-13T13:57:26Z</time>
      </trkpt>
      <trkpt lat="48.34784" lon="-3.25507">
        <ele>223.64</ele>
        <time>2020-08-13T13:57:28Z</time>
      </trkpt>
      <trkpt lat="48.34772" lon="-3.25507">
        <ele>224.12</ele>
        <time>2020-08-13T13:57:40Z</time>
      </trkpt>
      <trkpt lat="48.34763" lon="-3.25506">
        <ele>222.68</ele>
        <time>2020-08-13T13:57:47Z</time>
      </trkpt>
      <trkpt lat="48.34757" lon="-3.25508">
        <ele>223.16</ele>
        <time>2020-08-13T13:57:53Z</time>
      </trkpt>
      <trkpt lat="48.34754" lon="-3.25521">
        <ele>224.61</ele>
        <time>2020-08-13T13:58:02Z</time>
      </trkpt>
      <trkpt lat="48.34752" lon="-3.25531">
        <ele>223.16</ele>
        <time>2020-08-13T13:58:06Z</time>
      </trkpt>
      <trkpt lat="48.34758" lon="-3.25561">
        <ele>223.64</ele>
        <time>2020-08-13T13:58:20Z</time>
      </trkpt>
      <trkpt lat="48.34768" lon="-3.25566">
        <ele>221.24</ele>
        <time>2020-08-13T13:58:31Z</time>
      </trkpt>
      <trkpt lat="48.34787" lon="-3.25573">
        <ele>221.24</ele>
        <time>2020-08-13T13:58:44Z</time>
      </trkpt>
      <trkpt lat="48.3479" lon="-3.25578">
        <ele>219.8</ele>
        <time>2020-08-13T13:58:48Z</time>
      </trkpt>
      <trkpt lat="48.34798" lon="-3.25598">
        <ele>221.24</ele>
        <time>2020-08-13T13:59:02Z</time>
      </trkpt>
      <trkpt lat="48.34798" lon="-3.25601">
        <ele>221.24</ele>
        <time>2020-08-13T13:59:04Z</time>
      </trkpt>
      <trkpt lat="48.34799" lon="-3.25608">
        <ele>221.72</ele>
        <time>2020-08-13T13:59:08Z</time>
      </trkpt>
      <trkpt lat="48.34799" lon="-3.25629">
        <ele>221.24</ele>
        <time>2020-08-13T13:59:20Z</time>
      </trkpt>
      <trkpt lat="48.348" lon="-3.25636">
        <ele>222.2</ele>
        <time>2020-08-13T13:59:24Z</time>
      </trkpt>
      <trkpt lat="48.34798" lon="-3.25645">
        <ele>222.68</ele>
        <time>2020-08-13T13:59:31Z</time>
      </trkpt>
      <trkpt lat="48.348" lon="-3.2566">
        <ele>221.24</ele>
        <time>2020-08-13T13:59:41Z</time>
      </trkpt>
      <trkpt lat="48.34803" lon="-3.25668">
        <ele>220.76</ele>
        <time>2020-08-13T13:59:46Z</time>
      </trkpt>
      <trkpt lat="48.34808" lon="-3.25681">
        <ele>223.64</ele>
        <time>2020-08-13T13:59:54Z</time>
      </trkpt>
      <trkpt lat="48.34809" lon="-3.25683">
        <ele>223.64</ele>
        <time>2020-08-13T13:59:55Z</time>
      </trkpt>
      <trkpt lat="48.3481" lon="-3.25686">
        <ele>223.64</ele>
        <time>2020-08-13T13:59:56Z</time>
      </trkpt>
      <trkpt lat="48.34812" lon="-3.25693">
        <ele>223.64</ele>
        <time>2020-08-13T14:00:00Z</time>
      </trkpt>
      <trkpt lat="48.34809" lon="-3.25714">
        <ele>221.72</ele>
        <time>2020-08-13T14:00:10Z</time>
      </trkpt>
      <trkpt lat="48.34802" lon="-3.25731">
        <ele>222.2</ele>
        <time>2020-08-13T14:00:21Z</time>
      </trkpt>
      <trkpt lat="48.34793" lon="-3.25752">
        <ele>222.68</ele>
        <time>2020-08-13T14:00:32Z</time>
      </trkpt>
      <trkpt lat="48.34791" lon="-3.25756">
        <ele>221.24</ele>
        <time>2020-08-13T14:00:34Z</time>
      </trkpt>
      <trkpt lat="48.34776" lon="-3.25778">
        <ele>221.24</ele>
        <time>2020-08-13T14:00:51Z</time>
      </trkpt>
      <trkpt lat="48.34759" lon="-3.25795">
        <ele>221.24</ele>
        <time>2020-08-13T14:01:09Z</time>
      </trkpt>
      <trkpt lat="48.34754" lon="-3.25793">
        <ele>223.16</ele>
        <time>2020-08-13T14:01:14Z</time>
      </trkpt>
      <trkpt lat="48.34752" lon="-3.25792">
        <ele>221.72</ele>
        <time>2020-08-13T14:01:16Z</time>
      </trkpt>
      <trkpt lat="48.34749" lon="-3.2579">
        <ele>224.61</ele>
        <time>2020-08-13T14:01:20Z</time>
      </trkpt>
      <trkpt lat="48.34745" lon="-3.25793">
        <ele>221.72</ele>
        <time>2020-08-13T14:01:26Z</time>
      </trkpt>
      <trkpt lat="48.34744" lon="-3.25793">
        <ele>225.09</ele>
        <time>2020-08-13T14:01:27Z</time>
      </trkpt>
      <trkpt lat="48.3475" lon="-3.25799">
        <ele>221.72</ele>
        <time>2020-08-13T14:01:39Z</time>
      </trkpt>
      <trkpt lat="48.34754" lon="-3.25804">
        <ele>224.12</ele>
        <time>2020-08-13T14:01:45Z</time>
      </trkpt>
      <trkpt lat="48.34765" lon="-3.25817">
        <ele>222.68</ele>
        <time>2020-08-13T14:01:58Z</time>
      </trkpt>
      <trkpt lat="48.34771" lon="-3.25842">
        <ele>221.72</ele>
        <time>2020-08-13T14:02:16Z</time>
      </trkpt>
      <trkpt lat="48.34767" lon="-3.25862">
        <ele>222.2</ele>
        <time>2020-08-13T14:02:31Z</time>
      </trkpt>
      <trkpt lat="48.34766" lon="-3.25885">
        <ele>224.12</ele>
        <time>2020-08-13T14:02:47Z</time>
      </trkpt>
      <trkpt lat="48.34765" lon="-3.25894">
        <ele>224.12</ele>
        <time>2020-08-13T14:02:51Z</time>
      </trkpt>
      <trkpt lat="48.34756" lon="-3.25925">
        <ele>225.57</ele>
        <time>2020-08-13T14:03:15Z</time>
      </trkpt>
      <trkpt lat="48.34745" lon="-3.25914">
        <ele>229.41</ele>
        <time>2020-08-13T14:03:29Z</time>
      </trkpt>
      <trkpt lat="48.34742" lon="-3.25875">
        <ele>230.37</ele>
        <time>2020-08-13T14:03:50Z</time>
      </trkpt>
      <trkpt lat="48.34736" lon="-3.25835">
        <ele>232.78</ele>
        <time>2020-08-13T14:04:14Z</time>
      </trkpt>
      <trkpt lat="48.34712" lon="-3.25805">
        <ele>232.78</ele>
        <time>2020-08-13T14:04:39Z</time>
      </trkpt>
      <trkpt lat="48.34698" lon="-3.25774">
        <ele>232.3</ele>
        <time>2020-08-13T14:04:58Z</time>
      </trkpt>
      <trkpt lat="48.34676" lon="-3.2574">
        <ele>234.22</ele>
        <time>2020-08-13T14:05:23Z</time>
      </trkpt>
      <trkpt lat="48.34656" lon="-3.25715">
        <ele>236.62</ele>
        <time>2020-08-13T14:05:45Z</time>
      </trkpt>
      <trkpt lat="48.34641" lon="-3.257">
        <ele>238.06</ele>
        <time>2020-08-13T14:06:01Z</time>
      </trkpt>
      <trkpt lat="48.34665" lon="-3.25687">
        <ele>236.62</ele>
        <time>2020-08-13T14:06:16Z</time>
      </trkpt>
      <trkpt lat="48.34673" lon="-3.25688">
        <ele>236.62</ele>
        <time>2020-08-13T14:06:34Z</time>
      </trkpt>
      <trkpt lat="48.34682" lon="-3.25684">
        <ele>236.14</ele>
        <time>2020-08-13T14:06:51Z</time>
      </trkpt>
      <trkpt lat="48.34695" lon="-3.25676">
        <ele>235.18</ele>
        <time>2020-08-13T14:07:02Z</time>
      </trkpt>
      <trkpt lat="48.34713" lon="-3.25659">
        <ele>234.7</ele>
        <time>2020-08-13T14:07:18Z</time>
      </trkpt>
      <trkpt lat="48.34717" lon="-3.25657">
        <ele>234.7</ele>
        <time>2020-08-13T14:07:23Z</time>
      </trkpt>
      <trkpt lat="48.34724" lon="-3.25652">
        <ele>234.22</ele>
        <time>2020-08-13T14:07:29Z</time>
      </trkpt>
      <trkpt lat="48.34737" lon="-3.25646">
        <ele>233.74</ele>
        <time>2020-08-13T14:07:46Z</time>
      </trkpt>
      <trkpt lat="48.3474" lon="-3.25644">
        <ele>233.74</ele>
        <time>2020-08-13T14:08:14Z</time>
      </trkpt>
      <trkpt lat="48.34741" lon="-3.25647">
        <ele>233.74</ele>
        <time>2020-08-13T14:08:36Z</time>
      </trkpt>
      <trkpt lat="48.34738" lon="-3.25643">
        <ele>233.74</ele>
        <time>2020-08-13T14:09:02Z</time>
      </trkpt>
      <trkpt lat="48.34736" lon="-3.25645">
        <ele>233.26</ele>
        <time>2020-08-13T14:09:24Z</time>
      </trkpt>
      <trkpt lat="48.34739" lon="-3.2565">
        <ele>234.22</ele>
        <time>2020-08-13T14:09:39Z</time>
      </trkpt>
      <trkpt lat="48.34737" lon="-3.2565">
        <ele>234.7</ele>
        <time>2020-08-13T14:10:13Z</time>
      </trkpt>
    </trkseg>
  </trk>
</gpx>